Melrose Park, Pennsylvania
Current Conditions -  °F | °C
As of 3:54 AM on Saturday 22 Nov 2014 (Local Time) from KPNE Reporting Station
Clear Clear  
Wind Chill: 25°   Ceiling: Unl
Heat Index: 25°   Visibility: 10mi
Dew Point: 11°   Wind: 3mph
Humidity: 55%   Direction: 240°WSW
Pressure: 30.52"   Gusts: NA
Location:  40.0732°N, 75.1248°W
Report Text: KPNE 220854Z AUTO 24003KT 10SM CLR M04/M12 A3052 RMK AO2 SLP337 T10391117 58005 TSNO
Loading
Personal Weather Stations






























Interactive Weather Map New forecast layout! Learn more

10-Day Weather Forecast

Advertisements
Track Severe Weather on mobile